createdAt,value
2022-09-28T00:01:44.944Z,11.15
2022-09-28T00:04:48.955Z,10.91
2022-09-28T00:07:51.777Z,11.09
2022-09-28T00:10:56.055Z,11.21
2022-09-28T00:14:03.407Z,10.94
2022-09-28T00:17:05.987Z,10.74
2022-09-28T00:20:10.596Z,10.98
2022-09-28T00:23:13.193Z,10.99
2022-09-28T00:26:15.734Z,11.20
2022-09-28T00:29:21.809Z,11.21
2022-09-28T00:32:25.043Z,11.19
2022-09-28T00:35:28.967Z,11.20
2022-09-28T00:38:31.530Z,11.19
2022-09-28T00:41:34.265Z,11.23
2022-09-28T00:44:42.361Z,11.21
2022-09-28T00:47:51.407Z,10.50
2022-09-28T00:50:56.025Z,10.48
2022-09-28T00:54:00.651Z,10.54
2022-09-28T00:57:04.965Z,10.81
2022-09-28T01:00:09.374Z,10.84
2022-09-28T01:03:14.185Z,10.99
2022-09-28T01:06:20.260Z,11.03
2022-09-28T01:09:23.314Z,11.08
2022-09-28T01:12:26.088Z,11.06
2022-09-28T01:15:30.742Z,11.13
2022-09-28T01:18:41.042Z,10.97
2022-09-28T01:21:51.878Z,11.08
2022-09-28T01:25:01.029Z,11.06
2022-09-28T01:28:08.704Z,11.06
2022-09-28T01:31:13.643Z,11.05
2022-09-28T01:34:22.173Z,10.92
2022-09-28T01:37:29.467Z,10.91
2022-09-28T01:40:33.806Z,10.89
2022-09-28T01:43:41.477Z,10.83
2022-09-28T01:46:48.181Z,10.81
2022-09-28T01:49:57.481Z,10.77
2022-09-28T01:53:06.702Z,10.68
2022-09-28T01:56:14.284Z,10.64
2022-09-28T01:59:20.721Z,10.58
2022-09-28T02:02:27.539Z,10.56
2022-09-28T02:05:33.808Z,10.53
2022-09-28T02:08:40.985Z,10.47
2022-09-28T02:11:48.273Z,10.02
2022-09-28T02:14:56.222Z,10.22
2022-09-28T02:17:58.891Z,10.28
2022-09-28T02:21:09.853Z,10.26
2022-09-28T02:24:21.356Z,10.26
2022-09-28T02:27:32.763Z,10.28
2022-09-28T02:30:38.876Z,10.23
2022-09-28T02:33:44.556Z,10.15
2022-09-28T02:36:47.944Z,10.11
2022-09-28T02:39:50.415Z,10.09
2022-09-28T02:43:03.164Z,10.05
2022-09-28T02:46:17.589Z,10.00
2022-09-28T02:49:28.908Z,9.95
2022-09-28T02:52:51.344Z,9.84
2022-09-28T02:56:11.491Z,9.92
2022-09-28T02:59:21.653Z,9.83
2022-09-28T03:02:34.994Z,9.88
2022-09-28T03:05:47.600Z,9.85
2022-09-28T03:08:55.738Z,9.84
2022-09-28T03:12:02.065Z,9.80
2022-09-28T03:15:13.190Z,9.71
2022-09-28T03:18:17.266Z,9.71
2022-09-28T03:21:19.856Z,9.61
2022-09-28T03:24:22.509Z,9.65
2022-09-28T03:27:25.077Z,9.60
2022-09-28T03:30:27.719Z,9.57
2022-09-28T03:33:31.765Z,9.65
2022-09-28T03:36:34.270Z,9.63
2022-09-28T03:39:36.802Z,9.59
2022-09-28T03:42:39.292Z,9.64
2022-09-28T03:45:41.843Z,9.59
2022-09-28T03:48:45.823Z,9.59
2022-09-28T03:51:48.310Z,9.68
2022-09-28T03:54:50.807Z,9.75
2022-09-28T03:57:56.604Z,9.79
2022-09-28T04:01:03.773Z,9.58
2022-09-28T04:04:07.666Z,9.81
2022-09-28T04:07:10.148Z,9.80
2022-09-28T04:10:12.650Z,9.83
2022-09-28T04:13:15.705Z,9.70
2022-09-28T04:16:18.905Z,9.77
2022-09-28T04:19:22.965Z,9.13
2022-09-28T04:22:25.470Z,9.28
2022-09-28T04:25:27.940Z,9.55
2022-09-28T04:28:48.069Z,9.58
2022-09-28T04:31:52.790Z,9.68
2022-09-28T04:34:56.771Z,9.16
2022-09-28T04:37:59.239Z,9.54
2022-09-28T04:41:02.159Z,9.54
2022-09-28T04:44:04.683Z,9.24
2022-09-28T04:47:07.197Z,9.37
2022-09-28T04:50:11.295Z,9.61
2022-09-28T04:53:13.782Z,9.42
2022-09-28T04:56:17.593Z,9.36
2022-09-28T04:59:20.066Z,9.57
2022-09-28T05:02:22.658Z,9.67
2022-09-28T05:05:26.515Z,9.45
2022-09-28T05:08:29.500Z,9.56
2022-09-28T05:11:31.971Z,9.68
2022-09-28T05:14:34.478Z,9.39
2022-09-28T05:17:37.057Z,9.56
2022-09-28T05:20:42.754Z,9.55
2022-09-28T05:23:47.651Z,9.22
2022-09-28T05:26:50.191Z,9.23
2022-09-28T05:29:52.713Z,9.57
2022-09-28T05:32:55.176Z,9.71
2022-09-28T05:36:01.352Z,9.77
2022-09-28T05:39:04.436Z,9.84
2022-09-28T05:42:07.893Z,9.59
2022-09-28T05:45:11.621Z,9.35
2022-09-28T05:48:14.089Z,8.36
2022-09-28T05:51:17.944Z,8.93
2022-09-28T05:54:20.657Z,9.43
2022-09-28T05:57:23.277Z,9.65
2022-09-28T06:00:26.083Z,9.75
2022-09-28T06:03:28.612Z,9.75
2022-09-28T06:06:32.468Z,9.59
2022-09-28T06:09:34.949Z,9.79
2022-09-28T06:12:37.398Z,9.84
2022-09-28T06:15:43.401Z,9.48
2022-09-28T06:18:45.866Z,9.77
2022-09-28T06:21:49.691Z,9.73
2022-09-28T06:24:52.183Z,9.93
2022-09-28T06:27:56.363Z,9.94
2022-09-28T06:31:00.642Z,9.91
2022-09-28T06:34:03.148Z,9.99
2022-09-28T06:37:06.943Z,10.04
2022-09-28T06:40:10.181Z,9.72
2022-09-28T06:43:15.114Z,9.85
2022-09-28T06:46:17.683Z,9.97
2022-09-28T06:49:20.186Z,10.10
2022-09-28T06:52:24.023Z,10.09
2022-09-28T06:55:27.404Z,10.29
2022-09-28T06:58:31.431Z,10.35
2022-09-28T07:01:33.941Z,10.30
2022-09-28T07:04:36.625Z,10.34
2022-09-28T07:07:42.841Z,10.43
2022-09-28T07:10:47.410Z,10.10
2022-09-28T07:13:51.375Z,9.92
2022-09-28T07:17:12.251Z,10.23
2022-09-28T07:20:19.467Z,10.25
2022-09-28T07:23:23.835Z,10.34
2022-09-28T07:26:26.697Z,10.11
2022-09-28T07:29:29.145Z,10.16
2022-09-28T07:35:41.691Z,10.52
2022-09-28T07:38:45.489Z,10.45
2022-09-28T07:41:48.777Z,10.41
2022-09-28T07:44:51.364Z,10.55
2022-09-28T07:47:56.321Z,10.50
2022-09-28T07:51:00.123Z,10.40
2022-09-28T07:54:03.952Z,10.45
2022-09-28T07:57:06.908Z,10.67
2022-09-28T08:00:10.669Z,10.63
2022-09-28T08:03:13.174Z,10.75
2022-09-28T08:06:17.590Z,10.81
2022-09-28T08:09:21.408Z,10.85
2022-09-28T08:12:23.885Z,10.87
2022-09-28T08:15:27.153Z,10.79
2022-09-28T08:18:29.869Z,10.85
2022-09-28T08:21:46.276Z,10.77
2022-09-28T08:24:50.562Z,10.86
2022-09-28T08:27:53.076Z,10.91
2022-09-28T08:30:55.653Z,10.67
2022-09-28T08:33:58.607Z,10.75
2022-09-28T08:37:01.081Z,11.07
2022-09-28T08:40:05.691Z,11.12
2022-09-28T08:43:23.622Z,11.10
2022-09-28T08:46:29.508Z,11.08
2022-09-28T08:49:37.821Z,10.76
2022-09-28T08:52:41.549Z,11.09
2022-09-28T08:55:46.361Z,11.03
2022-09-28T08:58:55.432Z,11.10
2022-09-28T09:02:03.415Z,10.60
2022-09-28T09:05:08.922Z,11.09
2022-09-28T09:08:27.090Z,11.04
2022-09-28T09:11:45.144Z,10.36
2022-09-28T09:15:13.005Z,9.86
2022-09-28T09:18:27.397Z,10.26
2022-09-28T09:21:40.963Z,10.88
2022-09-28T09:24:50.635Z,11.20
2022-09-28T09:28:28.237Z,11.40
2022-09-28T09:31:42.731Z,11.20
2022-09-28T09:35:05.463Z,11.19
2022-09-28T09:38:21.988Z,11.24
2022-09-28T09:41:39.993Z,11.41
2022-09-28T09:44:59.757Z,11.55
2022-09-28T09:48:04.663Z,11.66
2022-09-28T09:51:18.973Z,11.46
2022-09-28T09:54:27.660Z,11.72
2022-09-28T09:57:34.377Z,11.79
2022-09-28T10:00:41.796Z,11.69
2022-09-28T10:03:48.760Z,11.93
2022-09-28T10:06:54.428Z,11.74
2022-09-28T10:09:59.302Z,12.00
2022-09-28T10:13:02.534Z,12.07
2022-09-28T10:16:08.065Z,12.31
2022-09-28T10:19:12.871Z,12.61
2022-09-28T10:22:23.724Z,11.97
2022-09-28T10:25:26.449Z,12.13
2022-09-28T10:28:36.515Z,12.47
2022-09-28T10:31:42.523Z,12.58
2022-09-28T10:34:48.839Z,12.27
2022-09-28T10:37:59.169Z,12.36
2022-09-28T10:41:09.520Z,11.90
2022-09-28T10:44:19.360Z,12.29
2022-09-28T10:47:25.520Z,12.54
2022-09-28T10:50:29.416Z,11.80
2022-09-28T10:53:32.025Z,11.86
2022-09-28T10:56:38.043Z,12.24
2022-09-28T10:59:42.542Z,12.40
2022-09-28T11:02:46.464Z,12.36
2022-09-28T11:06:01.657Z,12.30
2022-09-28T11:09:08.425Z,12.78
2022-09-28T11:12:18.127Z,13.18
2022-09-28T11:15:23.295Z,13.26
2022-09-28T11:18:32.328Z,13.19
2022-09-28T11:21:42.863Z,13.01
2022-09-28T11:24:45.404Z,13.90
2022-09-28T11:27:57.929Z,15.64
2022-09-28T11:31:01.773Z,15.34
2022-09-28T11:34:14.288Z,14.86
2022-09-28T11:37:44.433Z,14.80
2022-09-28T11:41:01.284Z,15.19
2022-09-28T11:44:19.380Z,16.35
2022-09-28T11:47:55.956Z,17.48
2022-09-28T11:51:05.149Z,17.98
2022-09-28T11:54:16.555Z,15.35
2022-09-28T11:57:23.097Z,15.06
2022-09-28T12:00:26.058Z,14.97
2022-09-28T12:03:36.762Z,14.81
2022-09-28T12:06:45.983Z,14.73
2022-09-28T12:09:55.013Z,14.77
2022-09-28T12:13:02.470Z,15.24
2022-09-28T12:19:38.154Z,14.88
2022-09-28T12:22:46.809Z,15.13
2022-09-28T12:25:55.950Z,15.20
2022-09-28T12:29:01.450Z,15.20
2022-09-28T12:32:11.773Z,15.16
2022-09-28T12:35:16.800Z,16.05
2022-09-28T12:38:38.054Z,16.62
2022-09-28T12:41:56.438Z,16.98
2022-09-28T12:45:20.375Z,17.97
2022-09-28T12:48:40.513Z,18.18
2022-09-28T12:51:49.871Z,19.06
2022-09-28T12:55:18.955Z,18.84
2022-09-28T12:58:36.441Z,19.39
2022-09-28T13:01:59.047Z,19.31
2022-09-28T13:05:17.178Z,18.24
2022-09-28T13:08:26.098Z,18.67
2022-09-28T13:11:34.784Z,18.47
2022-09-28T13:15:02.675Z,18.47
2022-09-28T13:18:12.662Z,18.12
2022-09-28T13:21:28.239Z,18.32
2022-09-28T13:24:36.042Z,18.05
2022-09-28T13:27:45.362Z,18.70
2022-09-28T13:30:50.273Z,19.20
2022-09-28T13:33:53.893Z,19.06
2022-09-28T13:37:19.873Z,18.82
2022-09-28T13:40:57.406Z,18.35
2022-09-28T13:44:33.837Z,17.73
2022-09-28T13:47:53.772Z,17.16
2022-09-28T13:51:21.878Z,16.86
2022-09-28T13:54:51.292Z,16.80
2022-09-28T13:57:57.748Z,16.49
2022-09-28T14:01:08.411Z,16.39
2022-09-28T14:04:16.420Z,16.31
2022-09-28T14:07:22.896Z,16.23
2022-09-28T14:10:51.566Z,16.02
2022-09-28T14:14:02.146Z,16.06
2022-09-28T14:17:53.432Z,16.01
2022-09-28T14:21:12.608Z,15.87
2022-09-28T14:24:27.333Z,15.86
2022-09-28T14:27:45.047Z,15.60
2022-09-28T14:30:52.969Z,15.55
2022-09-28T14:33:58.105Z,15.57
2022-09-28T14:37:22.044Z,15.08
2022-09-28T14:40:49.573Z,15.54
2022-09-28T14:44:03.498Z,15.47
2022-09-28T14:47:34.058Z,15.34
2022-09-28T14:50:36.779Z,15.32
2022-09-28T14:53:41.152Z,15.16
2022-09-28T14:56:48.105Z,15.04
2022-09-28T14:59:50.754Z,14.91
2022-09-28T15:02:56.008Z,14.80
2022-09-28T15:05:58.581Z,14.71
2022-09-28T15:09:02.444Z,14.64
2022-09-28T15:12:08.182Z,14.57
2022-09-28T15:15:26.665Z,14.52
2022-09-28T15:18:55.286Z,14.48
2022-09-28T15:21:57.846Z,14.49
2022-09-28T15:25:03.268Z,14.55
2022-09-28T15:28:19.070Z,14.41
2022-09-28T15:31:23.921Z,14.53
2022-09-28T15:34:49.054Z,14.54
2022-09-28T15:37:52.283Z,14.03
2022-09-28T15:40:56.562Z,14.03
2022-09-28T15:44:09.618Z,14.21
2022-09-28T15:47:14.777Z,14.26
2022-09-28T15:50:23.842Z,14.24
2022-09-28T15:53:27.476Z,14.24
2022-09-28T15:56:32.183Z,14.14
2022-09-28T15:59:36.702Z,14.10
2022-09-28T16:02:39.429Z,13.97
2022-09-28T16:05:46.593Z,13.92
2022-09-28T16:08:49.448Z,13.87
2022-09-28T16:11:53.284Z,13.78
2022-09-28T16:14:56.825Z,13.71
2022-09-28T16:18:02.856Z,13.65
2022-09-28T16:21:40.825Z,13.57
2022-09-28T16:24:43.653Z,13.47
2022-09-28T16:27:47.486Z,13.47
2022-09-28T16:31:01.620Z,13.42
2022-09-28T16:34:19.866Z,13.33
2022-09-28T16:37:32.260Z,13.24
2022-09-28T16:40:40.818Z,13.16
2022-09-28T16:43:45.687Z,13.06
2022-09-28T16:46:48.452Z,12.96
2022-09-28T16:49:51.465Z,12.90
2022-09-28T16:53:29.705Z,12.84
2022-09-28T16:56:32.978Z,12.71
2022-09-28T16:59:38.249Z,12.69
2022-09-28T17:02:46.582Z,12.56
2022-09-28T17:05:49.844Z,12.51
2022-09-28T17:08:52.363Z,12.42
2022-09-28T17:11:56.633Z,12.41
2022-09-28T17:15:00.817Z,12.35
2022-09-28T17:18:03.616Z,12.27
2022-09-28T17:21:10.698Z,12.17
2022-09-28T17:24:13.223Z,12.17
2022-09-28T17:27:20.896Z,12.16
2022-09-28T17:30:25.841Z,12.12
2022-09-28T17:33:29.160Z,11.94
2022-09-28T17:36:31.720Z,11.98
2022-09-28T17:39:34.808Z,11.92
2022-09-28T17:42:37.287Z,11.82
2022-09-28T17:45:41.447Z,11.78
2022-09-28T17:48:46.024Z,11.75
2022-09-28T17:51:50.047Z,11.66
2022-09-28T17:54:52.548Z,11.53
2022-09-28T17:57:55.375Z,11.54
2022-09-28T18:00:59.310Z,11.48
2022-09-28T18:04:02.549Z,11.47
2022-09-28T18:07:05.086Z,11.36
2022-09-28T18:10:08.775Z,11.36
2022-09-28T18:13:11.440Z,11.38
2022-09-28T18:16:15.918Z,11.33
2022-09-28T18:19:18.475Z,11.34
2022-09-28T18:22:20.953Z,11.30
2022-09-28T18:25:23.489Z,11.24
2022-09-28T18:28:26.099Z,11.21
2022-09-28T18:31:30.124Z,11.22
2022-09-28T18:34:36.404Z,11.07
2022-09-28T18:37:39.882Z,11.03
2022-09-28T18:40:43.077Z,10.94
2022-09-28T18:43:50.003Z,10.93
2022-09-28T18:46:54.310Z,10.98
2022-09-28T18:49:58.490Z,10.95
2022-09-28T18:53:11.413Z,10.91
2022-09-28T18:56:18.111Z,10.87
2022-09-28T18:59:20.664Z,10.80
2022-09-28T19:02:24.553Z,10.70
2022-09-28T19:05:27.453Z,10.76
2022-09-28T19:08:29.966Z,10.77
2022-09-28T19:11:32.927Z,10.74
2022-09-28T19:14:35.419Z,10.63
2022-09-28T19:17:39.695Z,10.61
2022-09-28T19:20:42.185Z,10.59
2022-09-28T19:23:49.181Z,10.59
2022-09-28T19:26:53.473Z,10.53
2022-09-28T19:29:55.968Z,10.55
2022-09-28T19:32:59.957Z,10.50
2022-09-28T19:36:05.265Z,10.44
2022-09-28T19:39:07.841Z,10.41
2022-09-28T19:42:10.330Z,10.48
2022-09-28T19:45:12.808Z,10.43
2022-09-28T19:48:16.709Z,10.36
2022-09-28T19:51:19.502Z,10.26
2022-09-28T19:54:22.168Z,10.22
2022-09-28T19:57:25.855Z,10.25
2022-09-28T20:00:28.551Z,10.29
2022-09-28T20:03:32.384Z,10.26
2022-09-28T20:06:34.889Z,10.22
2022-09-28T20:09:37.474Z,10.22
2022-09-28T20:12:42.150Z,10.21
2022-09-28T20:15:45.211Z,10.18
2022-09-28T20:18:50.333Z,10.20
2022-09-28T20:21:52.830Z,10.18
2022-09-28T20:24:55.325Z,10.04
2022-09-28T20:27:58.329Z,10.07
2022-09-28T20:31:03.132Z,9.99
2022-09-28T20:34:07.831Z,10.09
2022-09-28T20:37:12.398Z,10.12
2022-09-28T20:40:14.943Z,10.14
2022-09-28T20:43:17.424Z,10.04
2022-09-28T20:46:21.843Z,10.07
2022-09-28T20:49:27.121Z,10.10
2022-09-28T20:52:29.605Z,10.08
2022-09-28T20:55:32.094Z,10.08
2022-09-28T20:58:35.181Z,10.06
2022-09-28T21:01:37.784Z,10.01
2022-09-28T21:04:41.795Z,9.95
2022-09-28T21:07:44.276Z,9.94
2022-09-28T21:10:46.852Z,9.87
2022-09-28T21:13:52.571Z,9.94
2022-09-28T21:16:55.151Z,9.96
2022-09-28T21:19:59.152Z,9.95
2022-09-28T21:23:02.280Z,9.90
2022-09-28T21:26:06.863Z,9.84
2022-09-28T21:29:13.285Z,9.79
2022-09-28T21:32:15.771Z,9.75
2022-09-28T21:35:19.597Z,9.75
2022-09-28T21:38:22.185Z,9.68
2022-09-28T21:41:25.435Z,9.61
2022-09-28T21:44:28.007Z,9.61
2022-09-28T21:47:30.742Z,9.57
2022-09-28T21:50:34.591Z,9.63
2022-09-28T21:53:38.629Z,9.63
2022-09-28T21:56:41.187Z,9.56
2022-09-28T21:59:43.683Z,9.55
2022-09-28T22:02:46.488Z,9.52
2022-09-28T22:05:53.002Z,9.57
2022-09-28T22:08:55.963Z,9.60
2022-09-28T22:11:58.574Z,9.67
2022-09-28T22:15:01.090Z,9.53
2022-09-28T22:18:03.838Z,9.61
2022-09-28T22:21:09.842Z,9.65
2022-09-28T22:24:12.380Z,9.68
2022-09-28T22:27:16.315Z,9.74
2022-09-28T22:30:18.805Z,9.69
2022-09-28T22:33:21.320Z,9.79
2022-09-28T22:36:25.826Z,9.74
2022-09-28T22:39:28.372Z,9.66
2022-09-28T22:42:32.530Z,9.61
2022-09-28T22:45:35.091Z,9.57
2022-09-28T22:48:38.463Z,9.57
2022-09-28T22:51:42.391Z,9.54
2022-09-28T22:54:45.483Z,9.45
2022-09-28T22:57:48.014Z,9.48
2022-09-28T23:00:50.658Z,9.43
2022-09-28T23:03:54.338Z,9.42
2022-09-28T23:06:58.185Z,9.47
2022-09-28T23:10:00.665Z,9.34
2022-09-28T23:13:03.149Z,9.45
2022-09-28T23:16:07.650Z,9.25
2022-09-28T23:19:10.226Z,9.32
2022-09-28T23:22:14.066Z,9.27
2022-09-28T23:25:17.987Z,9.23
2022-09-28T23:28:21.457Z,9.26
2022-09-28T23:31:26.438Z,9.28
2022-09-28T23:34:28.961Z,9.20
2022-09-28T23:37:32.799Z,9.27
2022-09-28T23:40:35.336Z,9.26
2022-09-28T23:43:37.875Z,9.17
2022-09-28T23:46:40.393Z,9.29
2022-09-28T23:49:42.908Z,9.18
2022-09-28T23:52:48.523Z,9.18
2022-09-28T23:55:50.988Z,9.09
2022-09-28T23:58:53.493Z,9.01
